Flagstaff, AZ

7:10 AM MST on July 23, 2016 (GMT -0700)
MOGOLLON ENGINEERING | | Change Station

Elev 6917 ft 35.20 °N, 111.65 °W | Updated 10 minutes ago

Clear
Clear
62.4 °F
Feels Like 62.4 °F
N
0.0
Wind Variable Wind from NNW
Gusts 1.0 mph

Today
High -- | Low -- °F
--% Chance of Precip.
Yesterday
High -- | Low -- °F
Precip. -- in
Pressure 30.03 in
Visibility 10.0 miles
Clouds Clear
Dew Point 50 °F
Humidity 64%
Rainfall 0.00 in
Snow Depth Not available.
5:29 AM 7:36 PM
Waning Gibbous, 85% visible
METAR KFLG 231357Z 00000KT 10SM CLR 16/10 A3033 RMK AO2 SLP168 T01610100
Pressure 30.03 in
Visibility 10.0 miles
Clouds Clear
Dew Point 50 °F
Humidity 64%
Rainfall 0.00 in
Snow Depth Not available.
5:29 AM 7:36 PM
Waning Gibbous, 85% visible
METAR KFLG 231357Z 00000KT 10SM CLR 16/10 A3033 RMK AO2 SLP168 T01610100

10-Day Weather Forecast

Almanac

Astronomy

Jul. 23, 2016 Rise Set
Actual Time
Civil Twilight
Nautical Twilight
Astronomical Twilight
Moon
Length of Visible Light
Length of Day
Tomorrow will be .
, % of the Moon is Illuminated

Today's Extremes

State Highs State Lows

Community

WunderPhotos

Upload Photos

1,926,821 photos uploaded!

WunderBlog® & News

Nearby

Air Quality

  Air Quality AQ Index Pollutant
Not available.

Snow Depth

Station Depth Elevation

Earthquake Activity

City Distance Mag. Time & Date
Minimum magnitude displayed is 2.5.

Coastal Water Temperatures

Place Temperature

Stations

Nearby Weather Stations

Station Location Temp. Windchill Dew Point Humidity Wind Precip. Elev Updated Type
                   

Watches & Warnings

There are currently no watches in effect.